Time;durP1;ratioP1;P1;durP2;ratioP2;P2;SDS_P1;SDS_P2;PMS_P1;PMS_P2;Temp;Humidity;BMP_temperature;BMP_pressure;BME280_temperature;BME280_humidity;BME280_pressure;Samples;Min_cycle;Max_cycle;Signal;HPM_P1;HPM_P2
2022/07/12 00:02:23;;;;;;;4.03;1.20;;;;;;;14.98;76.23;99771.94;1725605;81;20986;-73
2022/07/12 00:04:50;;;;;;;3.72;1.35;;;;;;;14.95;76.22;99778.40;1719593;81;21427;-73
2022/07/12 00:07:16;;;;;;;3.60;1.50;;;;;;;14.89;76.25;99779.91;1712119;81;20977;-72
2022/07/12 00:09:43;;;;;;;5.10;1.15;;;;;;;14.84;76.29;99786.70;1727810;81;21055;-72
2022/07/12 00:12:11;;;;;;;4.37;1.22;;;;;;;14.79;76.44;99788.53;1732123;81;21987;-72
2022/07/12 00:14:37;;;;;;;2.72;1.10;;;;;;;14.76;76.47;99790.16;1721037;81;21004;-72
2022/07/12 00:17:04;;;;;;;5.92;1.70;;;;;;;14.74;76.48;99790.00;1730533;81;21455;-72
2022/07/12 00:19:32;;;;;;;8.45;1.40;;;;;;;14.70;76.50;99793.98;1729300;80;21074;-74
2022/07/12 00:21:59;;;;;;;4.70;1.92;;;;;;;14.65;76.62;99790.97;1716104;81;21024;-74
2022/07/12 00:24:26;;;;;;;5.42;1.70;;;;;;;14.60;76.68;99798.95;1727491;81;21663;-74
2022/07/12 00:26:52;;;;;;;4.55;1.40;;;;;;;14.54;76.80;99783.63;1716350;81;21149;-75
2022/07/12 00:29:19;;;;;;;5.03;1.30;;;;;;;14.52;76.90;99791.44;1727544;81;21431;-74
2022/07/12 00:31:46;;;;;;;4.37;1.20;;;;;;;14.51;77.00;99787.13;1716108;81;20996;-72
2022/07/12 00:34:13;;;;;;;3.95;1.22;;;;;;;14.50;77.04;99796.09;1741215;81;21048;-73
2022/07/12 00:36:40;;;;;;;4.22;1.40;;;;;;;14.50;77.11;99795.59;1739601;81;22339;-73
2022/07/12 00:39:06;;;;;;;3.15;1.30;;;;;;;14.49;77.20;99794.43;1726648;81;20986;-75
2022/07/12 00:41:35;;;;;;;4.60;1.40;;;;;;;14.48;77.27;99792.27;1736589;81;21039;-74
2022/07/12 00:44:01;;;;;;;7.22;1.45;;;;;;;14.49;77.42;99797.92;1730159;81;21479;-74
2022/07/12 00:46:27;;;;;;;2.77;1.42;;;;;;;14.49;77.59;99801.08;1728830;81;20981;-74
2022/07/12 00:48:54;;;;;;;3.87;1.52;;;;;;;14.50;77.74;99801.41;1725372;81;21814;-74
2022/07/12 00:51:20;;;;;;;4.05;1.50;;;;;;;14.52;77.79;99802.90;1727481;81;21525;-74
2022/07/12 00:53:48;;;;;;;6.05;1.60;;;;;;;14.55;77.91;99800.41;1730521;81;21465;-74
2022/07/12 00:56:14;;;;;;;2.45;1.47;;;;;;;14.56;77.99;99802.07;1714698;81;20979;-74
2022/07/12 00:58:43;;;;;;;5.78;1.60;;;;;;;14.57;78.04;99801.08;1711772;81;21138;-75
2022/07/12 01:01:10;;;;;;;2.27;1.42;;;;;;;14.59;78.11;99793.80;1651002;85;21776;-75
2022/07/12 01:03:37;;;;;;;5.75;1.30;;;;;;;14.59;78.15;99805.75;1637961;86;21048;-77
2022/07/12 01:06:04;;;;;;;5.37;1.42;;;;;;;14.60;78.17;99801.60;1647659;86;21026;-76
2022/07/12 01:08:31;;;;;;;6.42;1.50;;;;;;;14.62;78.16;99805.92;1655165;84;21130;-76
2022/07/12 01:10:58;;;;;;;2.72;1.57;;;;;;;14.59;78.27;99801.27;1688969;83;21350;-75
2022/07/12 01:13:25;;;;;;;5.00;1.50;;;;;;;14.59;78.32;99805.75;1683981;83;22403;-77
2022/07/12 01:15:52;;;;;;;3.67;1.50;;;;;;;14.59;78.37;99805.75;1663512;84;21084;-77
2022/07/12 01:18:18;;;;;;;2.80;1.45;;;;;;;14.61;78.43;99810.41;1633727;86;21028;-77
2022/07/12 01:20:45;;;;;;;4.03;1.45;;;;;;;14.64;78.43;99804.76;1617937;86;21033;-75
2022/07/12 01:23:13;;;;;;;2.67;1.50;;;;;;;14.66;78.39;99811.23;1653246;85;20973;-76
2022/07/12 01:25:40;;;;;;;4.17;1.70;;;;;;;14.66;78.37;99816.05;1677670;83;22532;-76
2022/07/12 01:28:07;;;;;;;3.83;1.35;;;;;;;14.66;78.36;99816.05;1682612;83;21449;-75
2022/07/12 01:30:34;;;;;;;9.93;2.95;;;;;;;14.66;78.37;99818.71;1672424;83;21068;-76
2022/07/12 01:33:00;;;;;;;3.95;1.50;;;;;;;14.66;78.36;99810.73;1678514;84;21122;-75
2022/07/12 01:35:28;;;;;;;3.17;1.47;;;;;;;14.66;78.39;99813.39;1674745;83;21514;-76
2022/07/12 01:37:55;;;;;;;4.55;1.65;;;;;;;14.67;78.43;99807.11;1669900;83;21814;-76
2022/07/12 01:40:21;;;;;;;3.45;1.27;;;;;;;14.67;78.34;99811.10;1687507;83;21543;-75
2022/07/12 01:42:48;;;;;;;6.10;1.60;;;;;;;14.67;78.30;99812.89;1659377;83;21084;-75
2022/07/12 01:45:15;;;;;;;4.53;1.52;;;;;;;14.65;78.25;99815.72;1692354;83;21084;-75
2022/07/12 01:47:41;;;;;;;1.92;1.40;;;;;;;14.64;78.18;99813.23;1682683;83;21001;-77
2022/07/12 01:50:10;;;;;;;2.90;1.47;;;;;;;14.60;78.12;99819.38;1670518;83;21835;-75
2022/07/12 01:52:39;;;;;;;3.92;1.65;;;;;;;14.55;78.05;99821.17;1677573;83;21483;-76
2022/07/12 01:55:08;;;;;;;2.52;1.80;;;;;;;14.52;78.04;99822.00;1654978;83;21031;-76
2022/07/12 01:57:35;;;;;;;5.12;1.50;;;;;;;14.51;77.97;99822.50;1686495;83;21461;-77
2022/07/12 02:00:05;;;;;;;2.20;1.60;;;;;;;14.51;77.88;99828.31;1711207;81;21000;-77
2022/07/12 02:02:32;;;;;;;3.58;1.50;;;;;;;14.49;77.75;99823.66;1736123;81;21976;-75
2022/07/12 02:05:00;;;;;;;4.30;1.42;;;;;;;14.45;77.67;99824.95;1734302;81;21079;-76
2022/07/12 02:07:28;;;;;;;2.90;1.32;;;;;;;14.43;77.58;99826.41;1722924;82;21014;-75
2022/07/12 02:09:55;;;;;;;2.00;1.37;;;;;;;14.41;77.49;99822.27;1746733;81;21130;-78
2022/07/12 02:12:22;;;;;;;3.02;1.32;;;;;;;14.40;77.40;99819.27;1738259;81;21004;-75
2022/07/12 02:14:49;;;;;;;5.37;1.50;;;;;;;14.39;77.23;99818.94;1736992;81;21932;-76
2022/07/12 02:17:16;;;;;;;6.72;1.37;;;;;;;14.35;77.07;99818.91;1739706;81;21415;-75
2022/07/12 02:19:44;;;;;;;6.67;1.57;;;;;;;14.32;76.98;99818.23;1738425;81;21075;-75
2022/07/12 02:22:11;;;;;;;5.87;1.60;;;;;;;14.33;76.87;99819.06;1732476;81;22239;-75
2022/07/12 02:24:38;;;;;;;2.20;1.30;;;;;;;14.31;76.76;99819.23;1749408;81;21018;-74
2022/07/12 02:27:06;;;;;;;3.47;1.32;;;;;;;14.30;76.66;99816.24;1718303;81;23160;-74
2022/07/12 02:29:35;;;;;;;4.40;1.40;;;;;;;14.30;76.53;99820.23;1740761;81;21000;-75
2022/07/12 02:32:02;;;;;;;2.65;1.35;;;;;;;14.29;76.46;99821.72;1746623;81;21451;-75
2022/07/12 02:34:30;;;;;;;2.62;1.40;;;;;;;14.27;76.36;99823.67;1757555;81;21467;-75
2022/07/12 02:36:56;;;;;;;3.10;1.55;;;;;;;14.25;76.26;99820.35;1735684;81;21004;-74
2022/07/12 02:39:23;;;;;;;2.80;1.30;;;;;;;14.22;76.21;99828.15;1740429;80;21780;-74
2022/07/12 02:41:49;;;;;;;2.80;1.45;;;;;;;14.20;76.21;99825.33;1739978;81;21519;-75
2022/07/12 02:44:17;;;;;;;1.92;1.30;;;;;;;14.20;76.18;99821.34;1737106;81;21141;-75
2022/07/12 02:46:45;;;;;;;2.77;1.40;;;;;;;14.21;76.11;99830.97;1731718;81;21099;-74
2022/07/12 02:49:13;;;;;;;3.25;1.40;;;;;;;14.17;76.03;99833.59;1741621;81;21049;-74
2022/07/12 02:51:40;;;;;;;3.05;1.60;;;;;;;14.15;76.00;99843.55;1738178;81;22344;-75
2022/07/12 02:54:08;;;;;;;3.92;1.42;;;;;;;14.13;75.99;99846.36;1726429;81;21016;-74
2022/07/12 02:56:35;;;;;;;3.77;1.60;;;;;;;14.14;76.03;99844.53;1739903;81;20996;-75
2022/07/12 02:59:04;;;;;;;2.72;1.40;;;;;;;14.12;76.01;99843.87;1747761;81;21059;-75
2022/07/12 03:01:32;;;;;;;4.12;1.57;;;;;;;14.10;76.01;99842.70;1735147;81;21055;-74
2022/07/12 03:03:59;;;;;;;5.17;1.65;;;;;;;14.09;76.04;99846.81;1740951;81;21908;-72
2022/07/12 03:06:27;;;;;;;2.33;1.40;;;;;;;14.06;76.11;99846.64;1721225;81;21114;-73
2022/07/12 03:08:56;;;;;;;6.87;1.60;;;;;;;14.04;76.18;99848.63;1730939;81;21027;-74
2022/07/12 03:11:24;;;;;;;5.72;1.98;;;;;;;14.02;76.27;99858.09;1737640;81;22340;-74
2022/07/12 03:13:53;;;;;;;3.85;1.45;;;;;;;14.02;76.36;99853.27;1738878;81;21047;-75
2022/07/12 03:16:22;;;;;;;3.37;1.52;;;;;;;14.03;76.39;99854.94;1739113;81;21830;-75
2022/07/12 03:18:49;;;;;;;5.30;1.70;;;;;;;14.04;76.39;99863.23;1739489;81;20990;-75
2022/07/12 03:21:16;;;;;;;5.45;1.60;;;;;;;14.05;76.41;99858.26;1712668;82;21471;-76
2022/07/12 03:23:44;;;;;;;3.45;1.60;;;;;;;14.07;76.38;99857.60;1735223;81;20996;-76
2022/07/12 03:26:10;;;;;;;1.80;1.30;;;;;;;14.09;76.31;99857.44;1738988;81;22418;-77
2022/07/12 03:28:37;;;;;;;2.62;1.60;;;;;;;14.13;76.27;99864.13;1739706;81;22252;-76
2022/07/12 03:31:04;;;;;;;4.10;1.70;;;;;;;14.15;76.19;99862.97;1735916;81;21076;-77
2022/07/12 03:33:31;;;;;;;4.58;1.65;;;;;;;14.18;76.04;99857.33;1747369;81;21224;-76
2022/07/12 03:35:59;;;;;;;3.60;1.60;;;;;;;14.21;75.98;99861.02;1757874;81;21001;-76
2022/07/12 03:38:26;;;;;;;3.10;1.45;;;;;;;14.25;75.86;99862.86;1737750;81;21154;-76
2022/07/12 03:40:52;;;;;;;3.58;1.70;;;;;;;14.28;75.70;99867.84;1726706;81;21824;-76
2022/07/12 03:43:21;;;;;;;4.83;1.72;;;;;;;14.32;75.52;99873.20;1731942;81;21109;-76
2022/07/12 03:45:48;;;;;;;3.70;1.50;;;;;;;14.34;75.25;99875.19;1733492;81;21059;-75
2022/07/12 03:48:14;;;;;;;3.33;1.85;;;;;;;14.38;75.08;99877.02;1740246;82;21000;-75
2022/07/12 03:50:42;;;;;;;3.55;1.40;;;;;;;14.43;74.98;99878.73;1741585;81;20970;-76
2022/07/12 03:53:09;;;;;;;3.80;1.60;;;;;;;14.49;74.91;99879.47;1698380;83;21838;-76
2022/07/12 03:55:35;;;;;;;3.42;1.40;;;;;;;14.55;74.85;99877.48;1697093;83;20966;-76
2022/07/12 03:58:02;;;;;;;3.55;1.50;;;;;;;14.60;74.42;99878.67;1722171;81;21016;-76
2022/07/12 04:00:29;;;;;;;5.03;1.50;;;;;;;14.66;73.97;99885.16;1736863;81;20961;-75
2022/07/12 04:02:56;;;;;;;3.15;1.50;;;;;;;14.72;73.85;99879.72;1744301;80;21005;-74
2022/07/12 04:05:26;;;;;;;8.18;7.08;;;;;;;14.78;73.51;99878.59;1732948;81;21909;-78
2022/07/12 04:07:53;;;;;;;5.00;2.33;;;;;;;14.85;73.00;99878.25;1752949;81;21088;-75
2022/07/12 04:10:20;;;;;;;1.95;1.47;;;;;;;14.91;72.66;99872.80;1737453;81;21174;-75
2022/07/12 04:12:47;;;;;;;9.10;1.40;;;;;;;15.00;72.49;99876.32;1736033;81;20964;-73
2022/07/12 04:15:13;;;;;;;2.70;1.40;;;;;;;15.06;72.10;99879.67;1738520;81;21004;-75
2022/07/12 04:17:41;;;;;;;2.15;1.42;;;;;;;15.13;71.82;99876.67;1739320;81;22324;-75
2022/07/12 04:20:10;;;;;;;3.70;1.27;;;;;;;15.20;71.59;99877.69;1728685;81;20976;-76
2022/07/12 04:22:36;;;;;;;2.70;1.40;;;;;;;15.30;71.28;99885.52;1730323;81;21008;-73
2022/07/12 04:25:03;;;;;;;3.33;1.52;;;;;;;15.37;70.83;99882.55;1750694;81;21454;-76
2022/07/12 04:27:30;;;;;;;7.62;2.98;;;;;;;15.44;70.20;99888.85;1737348;82;20990;-76
2022/07/12 04:29:57;;;;;;;5.17;1.90;;;;;;;15.51;69.71;99893.03;1735842;81;21932;-77
2022/07/12 04:32:23;;;;;;;4.05;1.70;;;;;;;15.57;69.37;99885.72;1736618;81;21009;-75
2022/07/12 04:34:50;;;;;;;3.42;1.60;;;;;;;15.65;69.25;99885.27;1741584;81;21043;-76
2022/07/12 04:37:17;;;;;;;3.95;1.40;;;;;;;15.73;68.97;99885.27;1732658;81;21038;-76
2022/07/12 04:39:45;;;;;;;2.87;1.20;;;;;;;15.80;68.56;99889.91;1731748;81;21040;-76
2022/07/12 04:42:12;;;;;;;5.83;5.00;;;;;;;15.86;68.30;99887.41;1740452;81;22022;-74
2022/07/12 04:44:38;;;;;;;8.13;5.78;;;;;;;15.94;67.84;99883.92;1736495;81;21388;-75
2022/07/12 04:47:06;;;;;;;4.55;2.58;;;;;;;16.00;67.62;99889.38;1738145;81;20964;-76
2022/07/12 04:49:33;;;;;;;3.47;1.10;;;;;;;16.08;67.37;99897.04;1738144;81;21011;-76
2022/07/12 04:52:00;;;;;;;2.80;1.10;;;;;;;16.17;66.95;99894.70;1734046;81;21121;-76
2022/07/12 04:54:26;;;;;;;2.70;1.05;;;;;;;16.24;66.56;99905.02;1747800;81;21672;-75
2022/07/12 04:56:53;;;;;;;2.77;1.05;;;;;;;16.30;66.44;99902.48;1740215;82;21011;-75
2022/07/12 04:59:19;;;;;;;1.52;1.00;;;;;;;16.38;66.11;99904.30;1744774;81;22439;-75
2022/07/12 05:01:46;;;;;;;3.33;0.95;;;;;;;16.41;65.46;99896.48;1720533;81;21738;-75
2022/07/12 05:04:12;;;;;;;2.80;1.20;;;;;;;16.45;65.58;99906.62;1702986;82;21144;-76
2022/07/12 05:06:40;;;;;;;3.90;1.10;;;;;;;16.50;65.43;99900.77;1726629;81;21858;-77
2022/07/12 05:09:07;;;;;;;1.35;0.93;;;;;;;16.55;65.26;99904.59;1732613;81;21390;-75
2022/07/12 05:11:34;;;;;;;3.00;1.20;;;;;;;16.63;65.45;99914.91;1721363;81;20999;-74
2022/07/12 05:14:00;;;;;;;3.45;0.93;;;;;;;16.69;64.77;99909.73;1729853;81;21039;-75
2022/07/12 05:16:29;;;;;;;3.02;1.05;;;;;;;16.74;64.36;99909.23;1731088;80;21026;-75
2022/07/12 05:18:55;;;;;;;3.85;1.07;;;;;;;16.79;64.05;99904.19;1723983;81;21918;-76
2022/07/12 05:21:22;;;;;;;3.35;1.10;;;;;;;16.84;63.93;99909.34;1723231;81;20995;-75
2022/07/12 05:23:49;;;;;;;2.40;1.00;;;;;;;16.90;63.76;99912.34;1728242;81;20968;-76
2022/07/12 05:26:17;;;;;;;2.58;1.00;;;;;;;16.95;63.60;99906.79;1722108;81;21069;-76
2022/07/12 05:28:44;;;;;;;1.10;0.95;;;;;;;17.01;64.03;99907.44;1741772;81;21392;-76
2022/07/12 05:31:11;;;;;;;2.52;1.02;;;;;;;17.10;63.50;99914.91;1726220;81;22015;-76
2022/07/12 05:33:37;;;;;;;4.55;1.10;;;;;;;17.19;63.55;99913.02;1742226;81;21371;-73
2022/07/12 05:36:05;;;;;;;5.03;1.20;;;;;;;17.26;63.44;99921.97;1723196;81;21020;-74
2022/07/12 05:38:32;;;;;;;1.95;1.00;;;;;;;17.31;62.83;99927.63;1716223;81;21523;-73
2022/07/12 05:40:59;;;;;;;2.27;1.00;;;;;;;17.34;62.57;99916.08;1739236;79;21062;-73
2022/07/12 05:43:26;;;;;;;2.58;1.00;;;;;;;17.40;62.85;99922.06;1723436;81;21907;-73
2022/07/12 05:45:52;;;;;;;1.17;1.00;;;;;;;17.50;62.30;99921.00;1726909;81;20986;-72
2022/07/12 05:48:19;;;;;;;2.17;0.85;;;;;;;17.55;62.26;99916.77;1700997;81;21024;-73
2022/07/12 05:50:45;;;;;;;1.55;0.90;;;;;;;17.66;62.36;99920.38;1726174;81;21035;-74
2022/07/12 05:53:24;;;;;;;3.40;1.00;;;;;;;17.76;62.03;99924.18;1713549;81;21090;-75
2022/07/12 05:55:52;;;;;;;2.67;0.85;;;;;;;17.83;61.97;99921.09;1725307;81;22500;-75
2022/07/12 05:58:19;;;;;;;1.30;0.90;;;;;;;17.92;61.07;99928.54;1722717;81;20937;-76
2022/07/12 06:00:46;;;;;;;2.17;0.88;;;;;;;18.02;61.28;99931.28;1727012;81;21118;-77
2022/07/12 06:03:14;;;;;;;3.60;0.90;;;;;;;18.10;59.94;99926.38;1700997;81;21060;-76
2022/07/12 06:05:41;;;;;;;2.67;0.70;;;;;;;18.18;60.27;99928.15;1692276;82;21058;-78
2022/07/12 06:08:07;;;;;;;1.07;0.80;;;;;;;18.26;59.82;99929.41;1722532;81;22591;-77
2022/07/12 06:10:34;;;;;;;2.72;0.95;;;;;;;18.30;59.14;99934.20;1722008;82;21069;-79
2022/07/12 06:13:02;;;;;;;3.50;0.90;;;;;;;18.33;59.05;99930.83;1723995;82;21034;-77
2022/07/12 06:15:29;;;;;;;1.87;0.88;;;;;;;18.38;58.75;99940.48;1720950;82;21018;-77
2022/07/12 06:17:58;;;;;;;5.58;1.17;;;;;;;18.41;58.09;99941.45;1695952;83;21065;-78
2022/07/12 06:20:26;;;;;;;2.95;1.00;;;;;;;18.46;57.72;99937.73;1715650;82;22171;-74
2022/07/12 06:22:54;;;;;;;2.27;0.90;;;;;;;18.53;58.24;99935.98;1727626;82;20973;-76
2022/07/12 06:25:22;;;;;;;1.67;0.90;;;;;;;18.62;57.92;99932.69;1733098;80;21094;-74
2022/07/12 06:27:51;;;;;;;3.20;0.70;;;;;;;18.74;58.19;99935.28;1721433;82;21659;-73
2022/07/12 06:30:22;;;;;;;2.05;0.80;;;;;;;18.81;57.58;99935.66;1726879;82;21106;-74
2022/07/12 06:32:50;;;;;;;2.90;0.65;;;;;;;18.91;57.67;99938.05;1722191;82;21871;-76
2022/07/12 06:35:19;;;;;;;1.35;0.70;;;;;;;18.98;55.94;99938.98;1723943;82;21597;-72
2022/07/12 06:37:46;;;;;;;1.30;0.80;;;;;;;19.05;56.63;99939.91;1713506;82;21039;-71
2022/07/12 06:40:16;;;;;;;1.27;0.70;;;;;;;19.13;56.24;99937.12;1726969;82;21022;-72
2022/07/12 06:42:46;;;;;;;0.60;0.60;;;;;;;19.27;56.32;99936.75;1724749;82;20986;-73
2022/07/12 06:45:14;;;;;;;3.45;0.82;;;;;;;19.36;55.32;99935.62;1718301;82;21794;-73
2022/07/12 06:47:46;;;;;;;2.55;0.80;;;;;;;19.43;55.66;99933.85;1713940;81;21013;-73
2022/07/12 06:50:16;;;;;;;4.37;0.90;;;;;;;19.53;54.98;99938.90;1716439;82;21002;-71
2022/07/12 06:52:42;;;;;;;5.12;0.90;;;;;;;19.61;53.86;99943.34;1723848;81;21006;-72
2022/07/12 06:55:13;;;;;;;2.50;0.60;;;;;;;19.64;53.33;99931.72;1725906;82;21034;-72
2022/07/12 06:57:42;;;;;;;2.45;0.53;;;;;;;19.67;52.96;99937.20;1726606;82;22182;-73
2022/07/12 07:00:12;;;;;;;1.85;0.62;;;;;;;19.71;52.84;99937.98;1699933;81;21117;-73
2022/07/12 07:02:39;;;;;;;1.05;0.60;;;;;;;19.73;53.01;99937.28;1727500;81;21069;-73
2022/07/12 07:05:11;;;;;;;1.37;0.70;;;;;;;19.80;53.10;99945.90;1723838;81;21078;-72
2022/07/12 07:07:40;;;;;;;1.35;0.70;;;;;;;19.88;52.77;99943.92;1718474;81;20960;-71
2022/07/12 07:10:09;;;;;;;1.80;0.60;;;;;;;19.98;52.61;99945.76;1720573;82;23041;-72
2022/07/12 07:12:37;;;;;;;1.35;0.72;;;;;;;20.07;52.19;99941.06;1724317;81;20948;-73
2022/07/12 07:15:07;;;;;;;2.60;0.85;;;;;;;20.16;52.45;99941.75;1728784;80;21058;-72
2022/07/12 07:17:37;;;;;;;2.72;0.70;;;;;;;20.23;52.07;99954.70;1727060;81;20965;-72
2022/07/12 07:20:09;;;;;;;2.35;0.68;;;;;;;20.26;51.37;99954.31;1715914;83;20980;-73
2022/07/12 07:22:37;;;;;;;1.70;0.40;;;;;;;20.28;50.25;99964.36;1718928;83;21916;-72
2022/07/12 07:25:07;;;;;;;2.47;0.70;;;;;;;20.32;49.70;99962.93;1715950;83;21054;-72
2022/07/12 07:27:38;;;;;;;0.85;0.50;;;;;;;20.37;48.94;99965.05;1735917;82;20972;-72
2022/07/12 07:33:00;;;;;;;3.58;0.60;;;;;;;20.41;47.56;99959.08;1664477;84;21008;-74
2022/07/12 07:35:30;;;;;;;1.30;0.68;;;;;;;20.46;47.48;99947.30;1677916;85;21818;-74
2022/07/12 07:37:58;;;;;;;0.88;0.50;;;;;;;20.46;48.46;99966.08;1670002;85;21095;-73
2022/07/12 07:40:26;;;;;;;1.05;0.60;;;;;;;20.55;48.09;99962.19;1685642;85;20997;-73
2022/07/12 07:42:54;;;;;;;1.32;0.60;;;;;;;20.58;47.63;99955.11;1666120;85;21088;-72
2022/07/12 07:45:24;;;;;;;3.65;0.80;;;;;;;20.63;48.13;99957.19;1685450;84;21040;-73
2022/07/12 07:47:52;;;;;;;1.05;0.60;;;;;;;20.70;47.57;99957.23;1683688;84;22212;-73
2022/07/12 07:50:23;;;;;;;0.93;0.50;;;;;;;20.77;48.07;99967.50;1660743;86;21030;-74
2022/07/12 07:52:52;;;;;;;2.60;0.70;;;;;;;20.86;47.58;99967.66;1668501;85;21544;-74
2022/07/12 07:55:24;;;;;;;1.67;0.60;;;;;;;20.83;48.41;99967.52;1676973;83;20970;-74
2022/07/12 07:57:55;;;;;;;2.87;0.98;;;;;;;20.89;47.69;99965.91;1685571;84;20993;-73
2022/07/12 08:00:25;;;;;;;2.40;0.60;;;;;;;21.04;47.82;99966.62;1682183;83;21945;-74
2022/07/12 08:02:55;;;;;;;0.88;0.60;;;;;;;21.19;47.26;99972.34;1711994;82;21003;-73
2022/07/12 08:05:25;;;;;;;1.22;0.70;;;;;;;21.34;47.15;99971.20;1702975;83;21621;-74
2022/07/12 08:07:51;;;;;;;1.27;0.70;;;;;;;21.41;46.81;99975.23;1665666;85;21154;-75
2022/07/12 08:10:21;;;;;;;0.98;0.55;;;;;;;21.48;46.46;99980.64;1669644;85;21048;-75
2022/07/12 08:12:49;;;;;;;2.35;0.60;;;;;;;21.45;46.74;99975.16;1661333;85;21060;-75
2022/07/12 08:15:17;;;;;;;1.17;0.60;;;;;;;21.39;46.49;99987.53;1657964;86;21009;-73
2022/07/12 08:17:52;;;;;;;2.67;0.60;;;;;;;21.29;45.73;99989.77;1659132;85;20965;-73
2022/07/12 08:20:22;;;;;;;1.07;0.42;;;;;;;21.21;45.26;99991.77;1671403;85;20985;-74
2022/07/12 08:22:50;;;;;;;1.35;0.53;;;;;;;21.15;44.95;99993.41;1656768;84;21579;-74
2022/07/12 08:25:19;;;;;;;5.37;0.50;;;;;;;21.24;45.08;99996.77;1664356;85;22002;-73
2022/07/12 08:27:46;;;;;;;1.20;0.57;;;;;;;21.37;44.81;99992.28;1659364;86;21011;-73
2022/07/12 08:30:16;;;;;;;4.80;0.50;;;;;;;21.51;43.94;99985.60;1680887;85;20975;-73
2022/07/12 08:32:46;;;;;;;2.47;0.50;;;;;;;21.65;44.16;99987.31;1683735;85;21030;-74
2022/07/12 08:35:14;;;;;;;1.60;0.50;;;;;;;21.72;43.82;99988.16;1685426;85;20992;-73
2022/07/12 08:37:43;;;;;;;0.75;0.40;;;;;;;21.65;42.80;99990.83;1686613;85;21921;-73
2022/07/12 08:40:14;;;;;;;0.80;0.50;;;;;;;21.55;43.11;99994.42;1685588;83;21045;-74
2022/07/12 08:42:42;;;;;;;2.90;0.50;;;;;;;21.50;43.30;99994.70;1683756;85;21057;-74
2022/07/12 08:45:12;;;;;;;2.10;0.50;;;;;;;21.52;44.92;99991.28;1683780;84;21130;-74
2022/07/12 08:47:45;;;;;;;3.92;0.60;;;;;;;21.61;43.32;99998.97;1683859;83;20974;-73
2022/07/12 08:50:17;;;;;;;3.65;0.68;;;;;;;21.59;42.96;99997.52;1683977;84;21892;-74
2022/07/12 08:52:52;;;;;;;1.37;0.50;;;;;;;21.47;42.83;100007.20;1683719;84;20983;-74
2022/07/12 08:55:28;;;;;;;1.45;0.60;;;;;;;21.37;41.78;100007.58;1683928;85;20982;-75
2022/07/12 08:58:00;;;;;;;1.77;0.53;;;;;;;21.49;43.21;100011.85;1684397;83;21062;-75
2022/07/12 09:00:28;;;;;;;0.75;0.42;;;;;;;21.67;42.17;99992.79;1684379;84;21045;-74
2022/07/12 09:03:03;;;;;;;1.25;0.57;;;;;;;21.71;42.01;100004.81;1677912;84;21856;-73
2022/07/12 09:05:34;;;;;;;2.12;0.80;;;;;;;21.66;41.93;100003.75;1667597;85;21060;-75
2022/07/12 09:08:10;;;;;;;2.25;0.60;;;;;;;21.54;42.30;100008.89;1668921;85;20933;-77
2022/07/12 09:11:00;;;;;;;1.62;0.55;;;;;;;21.54;42.46;100016.13;1667242;85;21031;-77
2022/07/12 09:13:58;;;;;;;0.82;0.50;;;;;;;21.70;41.94;99999.09;1688690;84;21047;-75
2022/07/12 09:16:27;;;;;;;2.25;0.60;;;;;;;21.98;41.92;100000.80;1667770;84;21769;-76
2022/07/12 09:19:17;;;;;;;0.95;0.72;;;;;;;22.26;40.76;99992.06;1659334;85;21003;-77
2022/07/12 09:21:54;;;;;;;3.50;0.70;;;;;;;22.22;40.57;100002.11;1664276;86;21490;-78
2022/07/12 09:24:26;;;;;;;0.80;0.60;;;;;;;22.05;40.16;100001.65;1669674;83;20992;-78
2022/07/12 09:27:02;;;;;;;1.15;0.55;;;;;;;22.05;41.18;100000.30;1681561;85;21061;-77
2022/07/12 09:29:34;;;;;;;5.60;0.65;;;;;;;22.18;41.59;100000.33;1675445;85;21915;-78
2022/07/12 09:37:48;;;;;;;1.17;0.50;;;;;;;22.30;41.97;100014.53;1687835;85;21090;-76
2022/07/12 09:40:14;;;;;;;1.55;0.42;;;;;;;22.37;39.78;100004.06;1679220;85;21004;-76
2022/07/12 09:42:41;;;;;;;0.70;0.60;;;;;;;22.35;40.54;100007.48;1689153;85;22208;-77
2022/07/12 09:45:09;;;;;;;2.05;0.50;;;;;;;22.44;41.28;100010.28;1689131;85;20979;-76
2022/07/12 09:47:35;;;;;;;2.85;0.40;;;;;;;22.56;40.47;100009.95;1685502;83;21050;-76
2022/07/12 16:29:16;;;;;;;2.50;0.50;;;;;;;22.65;35.16;100046.91;1696485;80;21054;-73
2022/07/12 16:31:43;;;;;;;1.65;0.40;;;;;;;22.44;35.29;100051.16;1700641;82;21975;-73
2022/07/12 16:34:09;;;;;;;1.00;0.50;;;;;;;22.30;35.44;100059.76;1723636;81;20996;-72
2022/07/12 16:36:36;;;;;;;1.12;0.60;;;;;;;22.19;35.52;100051.75;1747789;81;20990;-74
2022/07/12 16:39:03;;;;;;;1.32;0.70;;;;;;;22.12;35.51;100054.97;1721981;83;21071;-74
2022/07/12 16:41:30;;;;;;;1.52;0.70;;;;;;;22.00;35.97;100058.75;1747295;81;21443;-73
2022/07/12 16:43:57;;;;;;;0.82;0.40;;;;;;;21.94;36.42;100059.55;1718995;83;21519;-73
2022/07/12 16:46:23;;;;;;;6.05;4.97;;;;;;;21.90;36.71;100060.98;1718959;83;21071;-71
2022/07/12 16:48:49;;;;;;;2.05;0.85;;;;;;;21.81;37.02;100069.42;1723877;83;20961;-71
2022/07/12 16:51:22;;;;;;;2.27;0.60;;;;;;;21.75;37.31;100064.88;1737691;81;21481;-72
2022/07/12 16:53:52;;;;;;;0.85;0.50;;;;;;;21.76;37.66;100061.16;1728291;81;21024;-70
2022/07/12 16:56:23;;;;;;;1.95;0.50;;;;;;;21.72;37.52;100062.09;1723343;81;21922;-72
2022/07/12 16:58:52;;;;;;;2.40;0.60;;;;;;;21.58;37.76;100070.59;1743938;81;20972;-71
2022/07/12 17:01:20;;;;;;;2.72;0.70;;;;;;;21.46;38.17;100070.03;1675848;83;21025;-71
2022/07/12 17:03:47;;;;;;;1.42;0.40;;;;;;;21.40;38.43;100075.68;1733490;81;21087;-72
2022/07/12 17:06:14;;;;;;;1.75;0.50;;;;;;;21.34;38.68;100071.13;1700653;83;21170;-71
2022/07/12 17:08:43;;;;;;;1.05;0.60;;;;;;;21.27;38.99;100072.94;1740738;81;22510;-72
2022/07/12 17:11:10;;;;;;;3.62;0.50;;;;;;;21.20;39.42;100076.06;1731095;81;21008;-71
2022/07/12 17:13:39;;;;;;;2.33;0.70;;;;;;;21.09;39.76;100078.28;1721699;81;20957;-72
2022/07/12 17:16:07;;;;;;;3.55;0.70;;;;;;;21.02;40.16;100080.59;1732124;81;21044;-72
2022/07/12 17:18:36;;;;;;;1.22;0.70;;;;;;;20.98;40.49;100078.00;1723656;83;21048;-73
2022/07/12 17:21:03;;;;;;;2.72;0.60;;;;;;;20.93;40.55;100076.41;1691872;84;21918;-75
2022/07/12 17:23:30;;;;;;;1.67;0.60;;;;;;;20.87;40.71;100078.03;1735940;81;21008;-77
2022/07/12 17:25:56;;;;;;;1.22;0.60;;;;;;;20.80;40.93;100075.30;1724774;81;21850;-77
2022/07/12 17:28:23;;;;;;;3.27;0.60;;;;;;;20.75;41.20;100076.89;1736204;80;21539;-73
2022/07/12 17:30:49;;;;;;;1.55;0.55;;;;;;;20.72;41.26;100075.44;1773258;78;21017;-77
2022/07/12 17:33:18;;;;;;;5.40;0.80;;;;;;;20.65;41.42;100075.89;1767402;79;21928;-74
2022/07/12 17:35:45;;;;;;;5.45;0.82;;;;;;;20.56;41.63;100065.83;1756866;79;21027;-75
2022/07/12 17:38:13;;;;;;;4.53;0.62;;;;;;;20.49;41.74;100068.96;1755998;79;21092;-73
2022/07/12 17:40:39;;;;;;;25.17;22.52;;;;;;;20.40;41.90;100074.11;1757190;81;21099;-73
2022/07/12 17:43:05;;;;;;;4.42;3.37;;;;;;;20.33;41.94;100071.05;1759295;80;21041;-74
2022/07/12 17:45:32;;;;;;;3.85;1.20;;;;;;;20.26;42.13;100067.78;1758229;81;21732;-74
2022/07/12 17:48:00;;;;;;;2.17;0.80;;;;;;;20.24;42.24;100068.48;1758409;81;21020;-74
2022/07/12 17:50:27;;;;;;;3.70;0.70;;;;;;;20.19;42.32;100067.42;1758885;79;21040;-73
2022/07/12 17:52:54;;;;;;;1.30;0.70;;;;;;;20.11;42.29;100065.69;1757435;80;21011;-74
2022/07/12 17:55:20;;;;;;;1.12;0.60;;;;;;;20.06;42.50;100067.27;1757221;80;21027;-74
2022/07/12 18:00:32;;;;;;;3.62;0.70;;;;;;;19.91;42.96;100068.67;1757985;80;21007;-74
2022/07/12 18:03:00;;;;;;;3.33;0.70;;;;;;;19.83;43.18;100069.62;1785765;80;21018;-73
2022/07/12 18:05:27;;;;;;;5.55;0.80;;;;;;;19.77;43.59;100076.23;1756911;81;21039;-74
2022/07/12 18:07:54;;;;;;;2.27;0.70;;;;;;;19.68;43.79;100074.17;1775908;80;21023;-74
2022/07/12 18:10:21;;;;;;;1.62;0.80;;;;;;;19.63;44.07;100069.90;1793750;78;21763;-73
2022/07/12 18:15:34;;;;;;;2.05;1.00;;;;;;;19.44;44.86;100072.11;1792566;80;21063;-74
2022/07/12 18:18:00;;;;;;;2.37;1.05;;;;;;;19.33;45.25;100073.09;1758052;80;21036;-75
2022/07/12 18:20:33;;;;;;;3.72;1.22;;;;;;;19.22;45.42;100078.92;1757329;79;21044;-75
2022/07/12 18:23:00;;;;;;;5.70;1.52;;;;;;;19.13;45.67;100080.86;1757875;79;21853;-74
2022/07/12 18:25:26;;;;;;;2.65;1.10;;;;;;;19.06;45.87;100083.94;1757837;81;21423;-73
2022/07/12 18:27:53;;;;;;;6.47;1.12;;;;;;;19.01;46.01;100091.19;1758668;81;21057;-74
2022/07/12 18:30:22;;;;;;;3.85;1.40;;;;;;;18.96;46.01;100084.72;1758953;80;21133;-73